sensor_id;sensor_type;location;lat;lon;timestamp;P1;durP1;ratioP1;P2;durP2;ratioP2
10082;SDS011;5080;48.528;8.078;2022-12-08T00:01:21;2.10;;;2.00;;
10082;SDS011;5080;48.528;8.078;2022-12-08T00:03:49;2.20;;;2.10;;
10082;SDS011;5080;48.528;8.078;2022-12-08T00:06:21;1.80;;;1.70;;
10082;SDS011;5080;48.528;8.078;2022-12-08T00:09:12;2.10;;;2.00;;
10082;SDS011;5080;48.528;8.078;2022-12-08T00:11:56;1.77;;;1.67;;
10082;SDS011;5080;48.528;8.078;2022-12-08T00:14:25;1.97;;;1.87;;
10082;SDS011;5080;48.528;8.078;2022-12-08T00:16:54;1.90;;;1.80;;
10082;SDS011;5080;48.528;8.078;2022-12-08T00:19:22;2.10;;;2.00;;
10082;SDS011;5080;48.528;8.078;2022-12-08T00:21:50;2.57;;;2.37;;
10082;SDS011;5080;48.528;8.078;2022-12-08T00:24:19;2.17;;;2.07;;
10082;SDS011;5080;48.528;8.078;2022-12-08T00:26:47;1.90;;;1.80;;
10082;SDS011;5080;48.528;8.078;2022-12-08T00:29:14;1.70;;;1.60;;
10082;SDS011;5080;48.528;8.078;2022-12-08T00:31:41;1.70;;;1.60;;
10082;SDS011;5080;48.528;8.078;2022-12-08T00:34:08;1.80;;;1.70;;
10082;SDS011;5080;48.528;8.078;2022-12-08T00:36:36;1.50;;;1.50;;
10082;SDS011;5080;48.528;8.078;2022-12-08T00:39:03;1.30;;;1.30;;
10082;SDS011;5080;48.528;8.078;2022-12-08T00:41:32;1.73;;;1.63;;
10082;SDS011;5080;48.528;8.078;2022-12-08T00:44:19;1.20;;;1.20;;
10082;SDS011;5080;48.528;8.078;2022-12-08T00:46:45;1.60;;;1.50;;
10082;SDS011;5080;48.528;8.078;2022-12-08T00:49:13;1.30;;;1.30;;
10082;SDS011;5080;48.528;8.078;2022-12-08T00:51:40;1.23;;;1.23;;
10082;SDS011;5080;48.528;8.078;2022-12-08T00:54:08;1.40;;;1.40;;
10082;SDS011;5080;48.528;8.078;2022-12-08T00:56:37;1.53;;;1.50;;
10082;SDS011;5080;48.528;8.078;2022-12-08T00:59:04;1.60;;;1.50;;
10082;SDS011;5080;48.528;8.078;2022-12-08T01:01:32;1.40;;;1.40;;
10082;SDS011;5080;48.528;8.078;2022-12-08T01:04:01;1.30;;;1.30;;
10082;SDS011;5080;48.528;8.078;2022-12-08T01:06:29;1.80;;;1.70;;
10082;SDS011;5080;48.528;8.078;2022-12-08T01:08:56;1.70;;;1.60;;
10082;SDS011;5080;48.528;8.078;2022-12-08T01:11:23;1.43;;;1.43;;
10082;SDS011;5080;48.528;8.078;2022-12-08T01:13:51;1.63;;;1.53;;
10082;SDS011;5080;48.528;8.078;2022-12-08T01:16:19;1.73;;;1.63;;
10082;SDS011;5080;48.528;8.078;2022-12-08T01:18:48;1.50;;;1.50;;
10082;SDS011;5080;48.528;8.078;2022-12-08T01:21:15;1.30;;;1.30;;
10082;SDS011;5080;48.528;8.078;2022-12-08T01:23:42;1.43;;;1.43;;
10082;SDS011;5080;48.528;8.078;2022-12-08T01:26:09;1.60;;;1.50;;
10082;SDS011;5080;48.528;8.078;2022-12-08T01:28:38;1.50;;;1.50;;
10082;SDS011;5080;48.528;8.078;2022-12-08T01:31:10;1.50;;;1.50;;
10082;SDS011;5080;48.528;8.078;2022-12-08T01:33:38;1.43;;;1.40;;
10082;SDS011;5080;48.528;8.078;2022-12-08T01:36:05;1.70;;;1.60;;
10082;SDS011;5080;48.528;8.078;2022-12-08T01:38:32;1.30;;;1.30;;
10082;SDS011;5080;48.528;8.078;2022-12-08T01:40:59;1.70;;;1.60;;
10082;SDS011;5080;48.528;8.078;2022-12-08T01:46:11;1.50;;;1.40;;
10082;SDS011;5080;48.528;8.078;2022-12-08T01:48:38;1.30;;;1.30;;
10082;SDS011;5080;48.528;8.078;2022-12-08T01:51:05;1.37;;;1.37;;
10082;SDS011;5080;48.528;8.078;2022-12-08T01:53:32;1.33;;;1.30;;
10082;SDS011;5080;48.528;8.078;2022-12-08T01:56:01;1.40;;;1.40;;
10082;SDS011;5080;48.528;8.078;2022-12-08T01:58:33;1.10;;;1.10;;
10082;SDS011;5080;48.528;8.078;2022-12-08T02:01:03;1.23;;;1.23;;
10082;SDS011;5080;48.528;8.078;2022-12-08T02:03:33;1.40;;;1.40;;
10082;SDS011;5080;48.528;8.078;2022-12-08T02:06:03;1.20;;;1.20;;
10082;SDS011;5080;48.528;8.078;2022-12-08T02:08:30;1.30;;;1.30;;
10082;SDS011;5080;48.528;8.078;2022-12-08T02:10:58;1.50;;;1.40;;
10082;SDS011;5080;48.528;8.078;2022-12-08T02:13:25;1.30;;;1.30;;
10082;SDS011;5080;48.528;8.078;2022-12-08T02:15:55;1.50;;;1.40;;
10082;SDS011;5080;48.528;8.078;2022-12-08T02:18:39;1.30;;;1.30;;
10082;SDS011;5080;48.528;8.078;2022-12-08T02:21:16;1.30;;;1.30;;
10082;SDS011;5080;48.528;8.078;2022-12-08T02:23:50;1.40;;;1.40;;
10082;SDS011;5080;48.528;8.078;2022-12-08T02:26:34;1.20;;;1.20;;
10082;SDS011;5080;48.528;8.078;2022-12-08T02:32:08;1.47;;;1.37;;
10082;SDS011;5080;48.528;8.078;2022-12-08T02:34:50;1.60;;;1.50;;
10082;SDS011;5080;48.528;8.078;2022-12-08T02:37:24;1.30;;;1.20;;
10082;SDS011;5080;48.528;8.078;2022-12-08T02:39:57;1.20;;;1.20;;
10082;SDS011;5080;48.528;8.078;2022-12-08T02:42:31;1.20;;;1.20;;
10082;SDS011;5080;48.528;8.078;2022-12-08T02:45:05;1.67;;;1.50;;
10082;SDS011;5080;48.528;8.078;2022-12-08T02:47:35;1.27;;;1.20;;
10082;SDS011;5080;48.528;8.078;2022-12-08T02:50:05;2.60;;;1.40;;
10082;SDS011;5080;48.528;8.078;2022-12-08T02:52:42;1.47;;;1.30;;
10082;SDS011;5080;48.528;8.078;2022-12-08T02:55:15;1.73;;;1.43;;
10082;SDS011;5080;48.528;8.078;2022-12-08T02:57:50;1.27;;;1.27;;
10082;SDS011;5080;48.528;8.078;2022-12-08T03:00:43;1.30;;;1.30;;
10082;SDS011;5080;48.528;8.078;2022-12-08T03:03:22;1.17;;;1.17;;
10082;SDS011;5080;48.528;8.078;2022-12-08T03:05:59;1.30;;;1.30;;
10082;SDS011;5080;48.528;8.078;2022-12-08T03:08:34;1.20;;;1.20;;
10082;SDS011;5080;48.528;8.078;2022-12-08T03:11:08;1.33;;;1.33;;
10082;SDS011;5080;48.528;8.078;2022-12-08T03:13:39;1.80;;;1.70;;
10082;SDS011;5080;48.528;8.078;2022-12-08T03:16:08;1.73;;;1.60;;
10082;SDS011;5080;48.528;8.078;2022-12-08T03:18:38;2.00;;;1.90;;
10082;SDS011;5080;48.528;8.078;2022-12-08T03:21:09;1.97;;;1.87;;
10082;SDS011;5080;48.528;8.078;2022-12-08T03:23:39;2.00;;;1.90;;
10082;SDS011;5080;48.528;8.078;2022-12-08T03:26:10;1.90;;;1.80;;
10082;SDS011;5080;48.528;8.078;2022-12-08T03:28:41;1.67;;;1.57;;
10082;SDS011;5080;48.528;8.078;2022-12-08T03:31:09;1.80;;;1.70;;
10082;SDS011;5080;48.528;8.078;2022-12-08T03:33:39;1.93;;;1.83;;
10082;SDS011;5080;48.528;8.078;2022-12-08T03:36:09;1.73;;;1.63;;
10082;SDS011;5080;48.528;8.078;2022-12-08T03:38:38;1.70;;;1.60;;
10082;SDS011;5080;48.528;8.078;2022-12-08T03:41:06;1.83;;;1.73;;
10082;SDS011;5080;48.528;8.078;2022-12-08T03:43:46;1.90;;;1.80;;
10082;SDS011;5080;48.528;8.078;2022-12-08T03:46:13;2.00;;;1.90;;
10082;SDS011;5080;48.528;8.078;2022-12-08T03:48:41;2.07;;;1.97;;
10082;SDS011;5080;48.528;8.078;2022-12-08T03:51:09;2.07;;;1.97;;
10082;SDS011;5080;48.528;8.078;2022-12-08T03:53:37;1.60;;;1.50;;
10082;SDS011;5080;48.528;8.078;2022-12-08T03:56:04;1.40;;;1.40;;
10082;SDS011;5080;48.528;8.078;2022-12-08T03:58:36;1.53;;;1.47;;
10082;SDS011;5080;48.528;8.078;2022-12-08T04:01:03;1.77;;;1.67;;
10082;SDS011;5080;48.528;8.078;2022-12-08T04:03:30;1.83;;;1.73;;
10082;SDS011;5080;48.528;8.078;2022-12-08T04:05:57;1.87;;;1.77;;
10082;SDS011;5080;48.528;8.078;2022-12-08T04:08:25;1.70;;;1.60;;
10082;SDS011;5080;48.528;8.078;2022-12-08T04:10:52;1.70;;;1.60;;
10082;SDS011;5080;48.528;8.078;2022-12-08T04:13:19;1.33;;;1.33;;
10082;SDS011;5080;48.528;8.078;2022-12-08T04:15:46;1.90;;;1.80;;
10082;SDS011;5080;48.528;8.078;2022-12-08T04:18:13;1.67;;;1.60;;
10082;SDS011;5080;48.528;8.078;2022-12-08T04:20:41;1.70;;;1.60;;
10082;SDS011;5080;48.528;8.078;2022-12-08T04:23:09;1.70;;;1.60;;
10082;SDS011;5080;48.528;8.078;2022-12-08T04:25:38;1.73;;;1.63;;
10082;SDS011;5080;48.528;8.078;2022-12-08T04:28:05;1.80;;;1.70;;
10082;SDS011;5080;48.528;8.078;2022-12-08T04:30:32;1.90;;;1.80;;
10082;SDS011;5080;48.528;8.078;2022-12-08T04:32:59;1.50;;;1.50;;
10082;SDS011;5080;48.528;8.078;2022-12-08T04:35:26;1.83;;;1.73;;
10082;SDS011;5080;48.528;8.078;2022-12-08T04:37:53;1.50;;;1.50;;
10082;SDS011;5080;48.528;8.078;2022-12-08T04:40:20;1.50;;;1.50;;
10082;SDS011;5080;48.528;8.078;2022-12-08T04:42:48;1.47;;;1.47;;
10082;SDS011;5080;48.528;8.078;2022-12-08T04:45:15;1.50;;;1.50;;
10082;SDS011;5080;48.528;8.078;2022-12-08T04:47:42;1.40;;;1.40;;
10082;SDS011;5080;48.528;8.078;2022-12-08T04:50:09;1.50;;;1.40;;
10082;SDS011;5080;48.528;8.078;2022-12-08T04:52:37;1.50;;;1.50;;
10082;SDS011;5080;48.528;8.078;2022-12-08T04:55:05;1.43;;;1.43;;
10082;SDS011;5080;48.528;8.078;2022-12-08T04:57:32;1.70;;;1.60;;
10082;SDS011;5080;48.528;8.078;2022-12-08T05:00:01;1.70;;;1.60;;
10082;SDS011;5080;48.528;8.078;2022-12-08T05:02:29;1.47;;;1.47;;
10082;SDS011;5080;48.528;8.078;2022-12-08T05:04:56;1.40;;;1.40;;
10082;SDS011;5080;48.528;8.078;2022-12-08T05:07:23;1.40;;;1.30;;
10082;SDS011;5080;48.528;8.078;2022-12-08T05:09:50;1.60;;;1.50;;
10082;SDS011;5080;48.528;8.078;2022-12-08T05:12:17;1.70;;;1.60;;
10082;SDS011;5080;48.528;8.078;2022-12-08T05:14:45;1.50;;;1.50;;
10082;SDS011;5080;48.528;8.078;2022-12-08T05:17:13;1.77;;;1.67;;
10082;SDS011;5080;48.528;8.078;2022-12-08T05:19:40;1.60;;;1.50;;
10082;SDS011;5080;48.528;8.078;2022-12-08T05:22:07;1.67;;;1.57;;
10082;SDS011;5080;48.528;8.078;2022-12-08T05:24:34;1.40;;;1.40;;
10082;SDS011;5080;48.528;8.078;2022-12-08T05:27:02;1.47;;;1.43;;
10082;SDS011;5080;48.528;8.078;2022-12-08T05:29:29;1.60;;;1.50;;
10082;SDS011;5080;48.528;8.078;2022-12-08T05:31:56;1.57;;;1.47;;
10082;SDS011;5080;48.528;8.078;2022-12-08T05:34:24;1.60;;;1.50;;
10082;SDS011;5080;48.528;8.078;2022-12-08T05:36:51;1.30;;;1.30;;
10082;SDS011;5080;48.528;8.078;2022-12-08T05:39:18;1.33;;;1.33;;
10082;SDS011;5080;48.528;8.078;2022-12-08T05:41:44;1.50;;;1.40;;
10082;SDS011;5080;48.528;8.078;2022-12-08T05:44:11;1.30;;;1.30;;
10082;SDS011;5080;48.528;8.078;2022-12-08T05:46:38;1.40;;;1.40;;
10082;SDS011;5080;48.528;8.078;2022-12-08T05:49:05;1.60;;;1.50;;
10082;SDS011;5080;48.528;8.078;2022-12-08T05:51:33;1.70;;;1.60;;
10082;SDS011;5080;48.528;8.078;2022-12-08T05:54:00;1.70;;;1.60;;
10082;SDS011;5080;48.528;8.078;2022-12-08T05:56:27;1.90;;;1.80;;
10082;SDS011;5080;48.528;8.078;2022-12-08T05:58:54;1.83;;;1.73;;
10082;SDS011;5080;48.528;8.078;2022-12-08T06:01:21;1.80;;;1.70;;
10082;SDS011;5080;48.528;8.078;2022-12-08T06:03:51;1.90;;;1.80;;
10082;SDS011;5080;48.528;8.078;2022-12-08T06:06:19;1.93;;;1.83;;
10082;SDS011;5080;48.528;8.078;2022-12-08T06:08:47;1.80;;;1.70;;
10082;SDS011;5080;48.528;8.078;2022-12-08T06:11:18;1.40;;;1.40;;
10082;SDS011;5080;48.528;8.078;2022-12-08T06:13:46;1.40;;;1.40;;
10082;SDS011;5080;48.528;8.078;2022-12-08T06:16:13;1.60;;;1.50;;
10082;SDS011;5080;48.528;8.078;2022-12-08T06:18:41;1.60;;;1.50;;
10082;SDS011;5080;48.528;8.078;2022-12-08T06:21:08;1.30;;;1.30;;
10082;SDS011;5080;48.528;8.078;2022-12-08T06:23:36;1.50;;;1.50;;
10082;SDS011;5080;48.528;8.078;2022-12-08T06:26:06;1.57;;;1.47;;
10082;SDS011;5080;48.528;8.078;2022-12-08T06:28:35;1.60;;;1.50;;
10082;SDS011;5080;48.528;8.078;2022-12-08T06:31:05;1.40;;;1.40;;
10082;SDS011;5080;48.528;8.078;2022-12-08T06:33:33;1.27;;;1.27;;
10082;SDS011;5080;48.528;8.078;2022-12-08T06:36:00;1.50;;;1.50;;
10082;SDS011;5080;48.528;8.078;2022-12-08T06:38:27;1.40;;;1.40;;
10082;SDS011;5080;48.528;8.078;2022-12-08T06:40:54;1.40;;;1.37;;
10082;SDS011;5080;48.528;8.078;2022-12-08T06:43:22;1.60;;;1.50;;
10082;SDS011;5080;48.528;8.078;2022-12-08T06:45:50;1.30;;;1.30;;
10082;SDS011;5080;48.528;8.078;2022-12-08T06:48:17;1.30;;;1.30;;
10082;SDS011;5080;48.528;8.078;2022-12-08T06:50:45;1.30;;;1.30;;
10082;SDS011;5080;48.528;8.078;2022-12-08T06:53:11;1.57;;;1.50;;
10082;SDS011;5080;48.528;8.078;2022-12-08T06:55:41;1.30;;;1.30;;
10082;SDS011;5080;48.528;8.078;2022-12-08T06:58:09;1.30;;;1.30;;
10082;SDS011;5080;48.528;8.078;2022-12-08T07:00:38;1.20;;;1.20;;
10082;SDS011;5080;48.528;8.078;2022-12-08T07:03:05;1.40;;;1.40;;
10082;SDS011;5080;48.528;8.078;2022-12-08T07:05:32;1.70;;;1.60;;
10082;SDS011;5080;48.528;8.078;2022-12-08T07:07:59;1.70;;;1.60;;
10082;SDS011;5080;48.528;8.078;2022-12-08T07:10:26;1.60;;;1.50;;
10082;SDS011;5080;48.528;8.078;2022-12-08T07:12:53;1.37;;;1.37;;
10082;SDS011;5080;48.528;8.078;2022-12-08T07:15:20;1.37;;;1.37;;
10082;SDS011;5080;48.528;8.078;2022-12-08T07:17:48;1.37;;;1.37;;
10082;SDS011;5080;48.528;8.078;2022-12-08T07:20:15;1.10;;;1.10;;
10082;SDS011;5080;48.528;8.078;2022-12-08T07:22:46;1.37;;;1.37;;
10082;SDS011;5080;48.528;8.078;2022-12-08T07:25:14;1.30;;;1.30;;
10082;SDS011;5080;48.528;8.078;2022-12-08T07:27:41;1.37;;;1.37;;
10082;SDS011;5080;48.528;8.078;2022-12-08T07:30:09;1.30;;;1.30;;
10082;SDS011;5080;48.528;8.078;2022-12-08T07:32:37;1.40;;;1.40;;
10082;SDS011;5080;48.528;8.078;2022-12-08T07:35:06;1.50;;;1.50;;
10082;SDS011;5080;48.528;8.078;2022-12-08T07:37:35;1.27;;;1.23;;
10082;SDS011;5080;48.528;8.078;2022-12-08T07:40:03;1.40;;;1.40;;
10082;SDS011;5080;48.528;8.078;2022-12-08T07:42:31;1.70;;;1.60;;
10082;SDS011;5080;48.528;8.078;2022-12-08T07:44:58;1.30;;;1.30;;
10082;SDS011;5080;48.528;8.078;2022-12-08T07:47:25;1.40;;;1.40;;
10082;SDS011;5080;48.528;8.078;2022-12-08T07:49:51;1.20;;;1.20;;
10082;SDS011;5080;48.528;8.078;2022-12-08T07:52:20;1.50;;;1.40;;
10082;SDS011;5080;48.528;8.078;2022-12-08T07:54:47;1.10;;;1.10;;
10082;SDS011;5080;48.528;8.078;2022-12-08T07:57:14;1.63;;;1.53;;
10082;SDS011;5080;48.528;8.078;2022-12-08T07:59:41;1.83;;;1.73;;
10082;SDS011;5080;48.528;8.078;2022-12-08T08:02:10;1.63;;;1.53;;
10082;SDS011;5080;48.528;8.078;2022-12-08T08:04:41;1.60;;;1.50;;
10082;SDS011;5080;48.528;8.078;2022-12-08T08:07:08;1.30;;;1.30;;
10082;SDS011;5080;48.528;8.078;2022-12-08T08:09:37;1.50;;;1.50;;
10082;SDS011;5080;48.528;8.078;2022-12-08T08:12:04;1.33;;;1.33;;
10082;SDS011;5080;48.528;8.078;2022-12-08T08:14:31;1.20;;;1.20;;
10082;SDS011;5080;48.528;8.078;2022-12-08T08:16:57;1.20;;;1.20;;
10082;SDS011;5080;48.528;8.078;2022-12-08T08:19:24;1.20;;;1.20;;
10082;SDS011;5080;48.528;8.078;2022-12-08T08:21:51;1.40;;;1.40;;
10082;SDS011;5080;48.528;8.078;2022-12-08T08:24:18;1.40;;;1.40;;
10082;SDS011;5080;48.528;8.078;2022-12-08T08:26:47;1.43;;;1.40;;
10082;SDS011;5080;48.528;8.078;2022-12-08T08:29:14;1.47;;;1.40;;
10082;SDS011;5080;48.528;8.078;2022-12-08T08:31:41;1.30;;;1.30;;
10082;SDS011;5080;48.528;8.078;2022-12-08T08:34:08;1.30;;;1.30;;
10082;SDS011;5080;48.528;8.078;2022-12-08T08:36:34;1.33;;;1.33;;
10082;SDS011;5080;48.528;8.078;2022-12-08T08:39:01;1.20;;;1.20;;
10082;SDS011;5080;48.528;8.078;2022-12-08T08:41:28;1.67;;;1.57;;
10082;SDS011;5080;48.528;8.078;2022-12-08T08:43:57;1.53;;;1.43;;
10082;SDS011;5080;48.528;8.078;2022-12-08T08:46:23;1.30;;;1.30;;
10082;SDS011;5080;48.528;8.078;2022-12-08T08:48:50;1.30;;;1.30;;
10082;SDS011;5080;48.528;8.078;2022-12-08T08:51:17;1.50;;;1.40;;
10082;SDS011;5080;48.528;8.078;2022-12-08T08:53:44;1.50;;;1.40;;
10082;SDS011;5080;48.528;8.078;2022-12-08T08:56:11;1.50;;;1.40;;
10082;SDS011;5080;48.528;8.078;2022-12-08T08:58:39;1.47;;;1.33;;
10082;SDS011;5080;48.528;8.078;2022-12-08T09:01:08;1.30;;;1.30;;
10082;SDS011;5080;48.528;8.078;2022-12-08T09:03:40;1.57;;;1.50;;
10082;SDS011;5080;48.528;8.078;2022-12-08T09:06:07;1.30;;;1.30;;
10082;SDS011;5080;48.528;8.078;2022-12-08T09:08:34;1.40;;;1.40;;
10082;SDS011;5080;48.528;8.078;2022-12-08T09:11:01;1.37;;;1.27;;
10082;SDS011;5080;48.528;8.078;2022-12-08T09:13:28;1.17;;;1.17;;
10082;SDS011;5080;48.528;8.078;2022-12-08T09:15:55;1.30;;;1.30;;
10082;SDS011;5080;48.528;8.078;2022-12-08T09:18:23;1.40;;;1.40;;
10082;SDS011;5080;48.528;8.078;2022-12-08T09:20:50;1.50;;;1.40;;
10082;SDS011;5080;48.528;8.078;2022-12-08T09:23:17;1.30;;;1.30;;
10082;SDS011;5080;48.528;8.078;2022-12-08T09:25:44;1.50;;;1.40;;
10082;SDS011;5080;48.528;8.078;2022-12-08T09:28:11;1.20;;;1.20;;
10082;SDS011;5080;48.528;8.078;2022-12-08T09:30:38;1.23;;;1.23;;
10082;SDS011;5080;48.528;8.078;2022-12-08T09:33:04;1.20;;;1.20;;
10082;SDS011;5080;48.528;8.078;2022-12-08T09:35:34;1.10;;;1.10;;
10082;SDS011;5080;48.528;8.078;2022-12-08T09:38:01;1.83;;;1.40;;
10082;SDS011;5080;48.528;8.078;2022-12-08T09:40:28;1.50;;;1.50;;
10082;SDS011;5080;48.528;8.078;2022-12-08T09:42:59;1.40;;;1.30;;
10082;SDS011;5080;48.528;8.078;2022-12-08T09:45:35;1.30;;;1.30;;
10082;SDS011;5080;48.528;8.078;2022-12-08T09:48:04;1.00;;;1.00;;
10082;SDS011;5080;48.528;8.078;2022-12-08T09:50:37;1.30;;;1.30;;
10082;SDS011;5080;48.528;8.078;2022-12-08T09:53:10;1.50;;;1.50;;
10082;SDS011;5080;48.528;8.078;2022-12-08T09:55:40;1.60;;;1.50;;
10082;SDS011;5080;48.528;8.078;2022-12-08T09:58:14;1.27;;;1.27;;
10082;SDS011;5080;48.528;8.078;2022-12-08T10:00:46;1.70;;;1.60;;
10082;SDS011;5080;48.528;8.078;2022-12-08T10:03:13;1.30;;;1.30;;
10082;SDS011;5080;48.528;8.078;2022-12-08T10:05:43;1.50;;;1.40;;
10082;SDS011;5080;48.528;8.078;2022-12-08T10:08:17;1.43;;;1.33;;
10082;SDS011;5080;48.528;8.078;2022-12-08T10:10:47;1.40;;;1.40;;
10082;SDS011;5080;48.528;8.078;2022-12-08T10:13:23;1.67;;;1.53;;
10082;SDS011;5080;48.528;8.078;2022-12-08T10:15:57;1.30;;;1.30;;
10082;SDS011;5080;48.528;8.078;2022-12-08T10:18:35;1.70;;;1.60;;
10082;SDS011;5080;48.528;8.078;2022-12-08T10:21:09;1.53;;;1.43;;
10082;SDS011;5080;48.528;8.078;2022-12-08T10:23:39;1.60;;;1.50;;
10082;SDS011;5080;48.528;8.078;2022-12-08T10:26:12;1.67;;;1.57;;
10082;SDS011;5080;48.528;8.078;2022-12-08T10:28:40;1.60;;;1.50;;
10082;SDS011;5080;48.528;8.078;2022-12-08T10:31:12;1.30;;;1.30;;
10082;SDS011;5080;48.528;8.078;2022-12-08T10:33:41;1.30;;;1.30;;
10082;SDS011;5080;48.528;8.078;2022-12-08T10:36:10;1.83;;;1.70;;
10082;SDS011;5080;48.528;8.078;2022-12-08T10:38:38;1.40;;;1.40;;
10082;SDS011;5080;48.528;8.078;2022-12-08T10:41:08;1.50;;;1.40;;
10082;SDS011;5080;48.528;8.078;2022-12-08T10:43:39;1.73;;;1.63;;
10082;SDS011;5080;48.528;8.078;2022-12-08T10:46:10;1.30;;;1.30;;
10082;SDS011;5080;48.528;8.078;2022-12-08T10:48:46;1.40;;;1.40;;
10082;SDS011;5080;48.528;8.078;2022-12-08T10:51:24;1.33;;;1.33;;
10082;SDS011;5080;48.528;8.078;2022-12-08T10:53:54;1.20;;;1.20;;
10082;SDS011;5080;48.528;8.078;2022-12-08T10:56:23;1.23;;;1.23;;
10082;SDS011;5080;48.528;8.078;2022-12-08T10:59:03;1.23;;;1.23;;
10082;SDS011;5080;48.528;8.078;2022-12-08T11:01:32;1.30;;;1.30;;
10082;SDS011;5080;48.528;8.078;2022-12-08T11:04:03;1.30;;;1.30;;
10082;SDS011;5080;48.528;8.078;2022-12-08T11:06:34;1.30;;;1.30;;
10082;SDS011;5080;48.528;8.078;2022-12-08T11:09:03;1.40;;;1.40;;
10082;SDS011;5080;48.528;8.078;2022-12-08T11:11:39;1.40;;;1.40;;
10082;SDS011;5080;48.528;8.078;2022-12-08T11:14:14;1.50;;;1.40;;
10082;SDS011;5080;48.528;8.078;2022-12-08T11:16:44;1.40;;;1.40;;
10082;SDS011;5080;48.528;8.078;2022-12-08T11:19:13;1.30;;;1.30;;
10082;SDS011;5080;48.528;8.078;2022-12-08T11:21:43;1.43;;;1.40;;
10082;SDS011;5080;48.528;8.078;2022-12-08T11:24:20;1.50;;;1.40;;
10082;SDS011;5080;48.528;8.078;2022-12-08T11:26:51;1.43;;;1.33;;
10082;SDS011;5080;48.528;8.078;2022-12-08T11:29:20;1.40;;;1.40;;
10082;SDS011;5080;48.528;8.078;2022-12-08T11:31:49;1.20;;;1.20;;
10082;SDS011;5080;48.528;8.078;2022-12-08T11:34:22;2.43;;;1.57;;
10082;SDS011;5080;48.528;8.078;2022-12-08T11:36:57;1.20;;;1.20;;
10082;SDS011;5080;48.528;8.078;2022-12-08T11:39:24;1.10;;;1.10;;
10082;SDS011;5080;48.528;8.078;2022-12-08T11:41:53;1.20;;;1.20;;
10082;SDS011;5080;48.528;8.078;2022-12-08T11:44:24;0.90;;;0.90;;
10082;SDS011;5080;48.528;8.078;2022-12-08T11:46:59;1.20;;;1.20;;
10082;SDS011;5080;48.528;8.078;2022-12-08T11:49:32;1.20;;;1.20;;
10082;SDS011;5080;48.528;8.078;2022-12-08T11:52:04;1.30;;;1.30;;
10082;SDS011;5080;48.528;8.078;2022-12-08T11:54:40;1.23;;;1.23;;
10082;SDS011;5080;48.528;8.078;2022-12-08T11:57:12;1.23;;;1.23;;
10082;SDS011;5080;48.528;8.078;2022-12-08T11:59:41;1.23;;;1.23;;
10082;SDS011;5080;48.528;8.078;2022-12-08T12:02:13;1.27;;;1.27;;
10082;SDS011;5080;48.528;8.078;2022-12-08T12:04:43;1.30;;;1.30;;
10082;SDS011;5080;48.528;8.078;2022-12-08T12:07:26;1.00;;;1.00;;
10082;SDS011;5080;48.528;8.078;2022-12-08T12:10:16;1.20;;;1.20;;
10082;SDS011;5080;48.528;8.078;2022-12-08T12:13:12;2.00;;;1.27;;
10082;SDS011;5080;48.528;8.078;2022-12-08T12:18:59;1.50;;;1.40;;
10082;SDS011;5080;48.528;8.078;2022-12-08T12:21:30;1.30;;;1.30;;
10082;SDS011;5080;48.528;8.078;2022-12-08T12:24:02;1.60;;;1.60;;
10082;SDS011;5080;48.528;8.078;2022-12-08T12:26:32;1.57;;;1.47;;
10082;SDS011;5080;48.528;8.078;2022-12-08T12:29:02;1.13;;;1.13;;
10082;SDS011;5080;48.528;8.078;2022-12-08T12:31:33;1.03;;;1.03;;
10082;SDS011;5080;48.528;8.078;2022-12-08T12:34:05;1.00;;;1.00;;
10082;SDS011;5080;48.528;8.078;2022-12-08T12:36:48;1.20;;;1.20;;
10082;SDS011;5080;48.528;8.078;2022-12-08T12:39:19;1.70;;;1.60;;
10082;SDS011;5080;48.528;8.078;2022-12-08T12:41:49;1.80;;;1.70;;
10082;SDS011;5080;48.528;8.078;2022-12-08T12:44:38;1.70;;;1.60;;
10082;SDS011;5080;48.528;8.078;2022-12-08T12:47:11;1.63;;;1.50;;
10082;SDS011;5080;48.528;8.078;2022-12-08T12:50:04;2.00;;;1.90;;
10082;SDS011;5080;48.528;8.078;2022-12-08T12:52:35;1.70;;;1.60;;
10082;SDS011;5080;48.528;8.078;2022-12-08T12:58:33;1.50;;;1.50;;
10082;SDS011;5080;48.528;8.078;2022-12-08T13:04:13;1.73;;;1.63;;
10082;SDS011;5080;48.528;8.078;2022-12-08T13:06:43;1.50;;;1.40;;
10082;SDS011;5080;48.528;8.078;2022-12-08T13:09:18;2.00;;;1.90;;
10082;SDS011;5080;48.528;8.078;2022-12-08T13:11:49;1.70;;;1.60;;
10082;SDS011;5080;48.528;8.078;2022-12-08T13:14:28;1.40;;;1.40;;
10082;SDS011;5080;48.528;8.078;2022-12-08T13:16:57;1.77;;;1.67;;
10082;SDS011;5080;48.528;8.078;2022-12-08T13:19:27;1.83;;;1.73;;
10082;SDS011;5080;48.528;8.078;2022-12-08T13:21:57;1.30;;;1.30;;
10082;SDS011;5080;48.528;8.078;2022-12-08T13:24:29;1.80;;;1.70;;
10082;SDS011;5080;48.528;8.078;2022-12-08T13:33:01;1.40;;;1.40;;
10082;SDS011;5080;48.528;8.078;2022-12-08T13:35:28;1.67;;;1.60;;
10082;SDS011;5080;48.528;8.078;2022-12-08T13:37:56;1.73;;;1.63;;
10082;SDS011;5080;48.528;8.078;2022-12-08T13:40:24;2.03;;;1.93;;
10082;SDS011;5080;48.528;8.078;2022-12-08T13:42:56;1.63;;;1.53;;
10082;SDS011;5080;48.528;8.078;2022-12-08T13:45:31;1.90;;;1.80;;
10082;SDS011;5080;48.528;8.078;2022-12-08T13:48:02;1.97;;;1.87;;
10082;SDS011;5080;48.528;8.078;2022-12-08T13:50:38;1.40;;;1.40;;
10082;SDS011;5080;48.528;8.078;2022-12-08T13:53:10;1.93;;;1.83;;
10082;SDS011;5080;48.528;8.078;2022-12-08T13:55:42;1.50;;;1.50;;
10082;SDS011;5080;48.528;8.078;2022-12-08T13:58:16;1.73;;;1.63;;
10082;SDS011;5080;48.528;8.078;2022-12-08T14:01:00;1.80;;;1.70;;
10082;SDS011;5080;48.528;8.078;2022-12-08T14:03:32;1.80;;;1.70;;
10082;SDS011;5080;48.528;8.078;2022-12-08T14:06:03;1.87;;;1.77;;
10082;SDS011;5080;48.528;8.078;2022-12-08T14:08:32;1.87;;;1.77;;
10082;SDS011;5080;48.528;8.078;2022-12-08T14:11:00;1.50;;;1.50;;
10082;SDS011;5080;48.528;8.078;2022-12-08T14:13:31;1.60;;;1.50;;
10082;SDS011;5080;48.528;8.078;2022-12-08T14:15:59;1.87;;;1.77;;
10082;SDS011;5080;48.528;8.078;2022-12-08T14:18:27;2.00;;;1.90;;
10082;SDS011;5080;48.528;8.078;2022-12-08T14:20:59;2.00;;;1.90;;
10082;SDS011;5080;48.528;8.078;2022-12-08T14:23:27;2.23;;;2.13;;
10082;SDS011;5080;48.528;8.078;2022-12-08T14:25:54;1.90;;;1.80;;
10082;SDS011;5080;48.528;8.078;2022-12-08T14:28:21;2.20;;;2.10;;
10082;SDS011;5080;48.528;8.078;2022-12-08T14:30:50;1.63;;;1.60;;
10082;SDS011;5080;48.528;8.078;2022-12-08T14:33:20;1.80;;;1.70;;
10082;SDS011;5080;48.528;8.078;2022-12-08T14:35:50;1.67;;;1.57;;
10082;SDS011;5080;48.528;8.078;2022-12-08T14:38:19;1.63;;;1.53;;
10082;SDS011;5080;48.528;8.078;2022-12-08T14:40:47;1.87;;;1.77;;
10082;SDS011;5080;48.528;8.078;2022-12-08T14:43:25;1.80;;;1.70;;
10082;SDS011;5080;48.528;8.078;2022-12-08T14:45:56;1.87;;;1.77;;
10082;SDS011;5080;48.528;8.078;2022-12-08T14:48:26;1.93;;;1.83;;
10082;SDS011;5080;48.528;8.078;2022-12-08T14:51:06;3.57;;;2.13;;
10082;SDS011;5080;48.528;8.078;2022-12-08T14:53:40;2.13;;;1.90;;
10082;SDS011;5080;48.528;8.078;2022-12-08T14:56:10;1.70;;;1.60;;
10082;SDS011;5080;48.528;8.078;2022-12-08T14:58:43;2.07;;;1.97;;
10082;SDS011;5080;48.528;8.078;2022-12-08T15:01:13;1.70;;;1.60;;
10082;SDS011;5080;48.528;8.078;2022-12-08T15:03:42;2.40;;;2.20;;
10082;SDS011;5080;48.528;8.078;2022-12-08T15:06:09;2.00;;;1.90;;
10082;SDS011;5080;48.528;8.078;2022-12-08T15:08:49;2.60;;;2.40;;
10082;SDS011;5080;48.528;8.078;2022-12-08T15:11:25;2.78;;;2.40;;
10082;SDS011;5080;48.528;8.078;2022-12-08T15:13:56;2.47;;;2.37;;
10082;SDS011;5080;48.528;8.078;2022-12-08T15:16:29;2.03;;;1.93;;
10082;SDS011;5080;48.528;8.078;2022-12-08T15:21:52;2.10;;;2.00;;
10082;SDS011;5080;48.528;8.078;2022-12-08T15:24:21;2.00;;;1.90;;
10082;SDS011;5080;48.528;8.078;2022-12-08T15:26:49;1.90;;;1.80;;
10082;SDS011;5080;48.528;8.078;2022-12-08T15:29:19;2.00;;;1.90;;
10082;SDS011;5080;48.528;8.078;2022-12-08T15:31:49;1.92;;;1.83;;
10082;SDS011;5080;48.528;8.078;2022-12-08T15:34:17;1.77;;;1.67;;
10082;SDS011;5080;48.528;8.078;2022-12-08T15:36:44;2.13;;;2.03;;
10082;SDS011;5080;48.528;8.078;2022-12-08T15:39:19;2.20;;;1.83;;
10082;SDS011;5080;48.528;8.078;2022-12-08T15:41:53;1.80;;;1.70;;